Observation data for Floydada on 06/20/2019      Previous  Date  Next       Current Mesonet Observations  Soil Data  Daily Summary Page  Observations in Plain Language
KFLS 200500Z 12007KT 20/18 A2986 RMK A01 T02040181  RH  089%=      5-min Rain = 0
KFLS 200505Z 13006KT 21/18 A2987 RMK A01 T02070181  RH  087%=      5-min Rain = 0
KFLS 200510Z 13005KT 21/18 A2986 RMK A01 T02070180  RH  087%=      5-min Rain = 0
KFLS 200515Z 10006KT 20/18 A2986 RMK A01 T02020178  RH  088%=      5-min Rain = 0
KFLS 200520Z 12006KT 20/18 A2986 RMK A01 T02020179  RH  089%=      5-min Rain = 0
KFLS 200525Z 13007KT 20/18 A2986 RMK A01 T02030179  RH  088%=      5-min Rain = 0
KFLS 200530Z 14006KT 21/18 A2986 RMK A01 T02050180  RH  087%=      5-min Rain = 0
KFLS 200535Z 14007KT 20/18 A2986 RMK A01 T02040179  RH  087%=      5-min Rain = 0
KFLS 200540Z 13007KT 21/18 A2986 RMK A01 T02050180  RH  088%=      5-min Rain = 0
KFLS 200545Z 13006KT 20/18 A2986 RMK A01 T02030179  RH  088%=      5-min Rain = 0
KFLS 200550Z 14006KT 20/18 A2986 RMK A01 T02020178  RH  088%=      5-min Rain = 0
KFLS 200555Z 14006KT 20/18 A2986 RMK A01 T02010177  RH  088%=      5-min Rain = 0
KFLS 200600Z 14007KT 20/18 A2986 RMK A01 T02010178  RH  088%=      5-min Rain = 0
KFLS 200605Z 14007KT 20/18 A2986 RMK A01 T02030178  RH  088%=      5-min Rain = 0
KFLS 200610Z 14007KT 20/18 A2986 RMK A01 T02030178  RH  088%=      5-min Rain = 0
KFLS 200615Z 14007KT 20/18 A2986 RMK A01 T02020178  RH  088%=      5-min Rain = 0
KFLS 200620Z 15008KT 21/18 A2985 RMK A01 T02050179  RH  087%=      5-min Rain = 0
KFLS 200625Z 15009KT 21/18 A2985 RMK A01 T02110180  RH  084%=      5-min Rain = 0
KFLS 200630Z 15008KT 21/18 A2985 RMK A01 T02130179  RH  083%=      5-min Rain = 0
KFLS 200635Z 14008KT 21/18 A2985 RMK A01 T02130178  RH  082%=      5-min Rain = 0
KFLS 200640Z 14009KT 21/18 A2985 RMK A01 T02120177  RH  083%=      5-min Rain = 0
KFLS 200645Z 14009KT 21/18 A2985 RMK A01 T02120177  RH  083%=      5-min Rain = 0
KFLS 200650Z 14010KT 21/18 A2985 RMK A01 T02120177  RH  082%=      5-min Rain = 0
KFLS 200655Z 15009KT 21/18 A2985 RMK A01 T02120176  RH  082%=      5-min Rain = 0
KFLS 200700Z 15007KT 21/18 A2985 RMK A01 T02100176  RH  083%=      5-min Rain = 0
KFLS 200705Z 15007KT 21/18 A2985 RMK A01 T02060176  RH  085%=      5-min Rain = 0
KFLS 200710Z 16008KT 21/18 A2985 RMK A01 T02050177  RH  086%=      5-min Rain = 0
KFLS 200715Z 15009KT 21/18 A2984 RMK A01 T02070178  RH  085%=      5-min Rain = 0
KFLS 200720Z 15009KT 21/18 A2984 RMK A01 T02090179  RH  085%=      5-min Rain = 0
KFLS 200725Z 15009KT 21/18 A2984 RMK A01 T02100179  RH  085%=      5-min Rain = 0
KFLS 200730Z 15009KT 21/18 A2984 RMK A01 T02090180  RH  085%=      5-min Rain = 0
KFLS 200735Z 15010KT 21/18 A2984 RMK A01 T02100181  RH  085%=      5-min Rain = 0
KFLS 200740Z 16009KT 21/18 A2984 RMK A01 T02110181  RH  085%=      5-min Rain = 0
KFLS 200745Z 15009KT 21/18 A2984 RMK A01 T02110181  RH  085%=      5-min Rain = 0
KFLS 200750Z 15008KT 21/18 A2984 RMK A01 T02090180  RH  086%=      5-min Rain = 0
KFLS 200755Z 15009KT 21/18 A2984 RMK A01 T02090180  RH  086%=      5-min Rain = 0
KFLS 200800Z 16008KT 21/18 A2984 RMK A01 T02090180  RH  086%=      5-min Rain = 0
KFLS 200805Z 15008KT 21/18 A2984 RMK A01 T02100180  RH  085%=      5-min Rain = 0
KFLS 200810Z 16008KT 21/18 A2984 RMK A01 T02090180  RH  086%=      5-min Rain = 0
KFLS 200815Z 15008KT 21/18 A2984 RMK A01 T02080180  RH  086%=      5-min Rain = 0
KFLS 200820Z 15007KT 21/18 A2984 RMK A01 T02070180  RH  087%=      5-min Rain = 0
KFLS 200825Z 15007KT 21/18 A2984 RMK A01 T02060180  RH  087%=      5-min Rain = 0
KFLS 200830Z 14006KT 20/18 A2984 RMK A01 T02030179  RH  088%=      5-min Rain = 0
KFLS 200835Z 14006KT 20/18 A2983 RMK A01 T02010179  RH  089%=      5-min Rain = 0
KFLS 200840Z 14006KT 20/18 A2983 RMK A01 T02000179  RH  090%=      5-min Rain = 0
KFLS 200845Z 15007KT 20/18 A2983 RMK A01 T01990179  RH  090%=      5-min Rain = 0
KFLS 200850Z 15007KT 20/18 A2983 RMK A01 T02000180  RH  091%=      5-min Rain = 0
KFLS 200855Z 14006KT 20/18 A2983 RMK A01 T02000180  RH  090%=      5-min Rain = 0
KFLS 200900Z 14006KT 20/18 A2983 RMK A01 T01980179  RH  091%=      5-min Rain = 0
KFLS 200905Z 15006KT 20/18 A2983 RMK A01 T01960178  RH  091%=      5-min Rain = 0
KFLS 200910Z 16006KT 20/18 A2983 RMK A01 T01970179  RH  091%=      5-min Rain = 0
KFLS 200915Z 16006KT 20/18 A2983 RMK A01 T01980179  RH  091%=      5-min Rain = 0
KFLS 200920Z 16005KT 20/18 A2983 RMK A01 T01970178  RH  091%=      5-min Rain = 0
KFLS 200925Z 15006KT 20/18 A2983 RMK A01 T01960178  RH  091%=      5-min Rain = 0
KFLS 200930Z 15007KT 20/18 A2983 RMK A01 T01960178  RH  091%=      5-min Rain = 0
KFLS 200935Z 14006KT 20/18 A2983 RMK A01 T01960177  RH  091%=      5-min Rain = 0
KFLS 200940Z 15006KT 20/18 A2982 RMK A01 T01950176  RH  091%=      5-min Rain = 0
KFLS 200945Z 16006KT 20/18 A2982 RMK A01 T01950176  RH  091%=      5-min Rain = 0
KFLS 200950Z 15006KT 20/18 A2982 RMK A01 T01970178  RH  091%=      5-min Rain = 0
KFLS 200955Z 16006KT 20/18 A2982 RMK A01 T01980178  RH  090%=      5-min Rain = 0
KFLS 201000Z 16006KT 20/18 A2981 RMK A01 T01970177  RH  090%=      5-min Rain = 0
KFLS 201005Z 15006KT 20/18 A2981 RMK A01 T01960175  RH  090%=      5-min Rain = 0
KFLS 201010Z 16007KT 19/17 A2981 RMK A01 T01940174  RH  091%=      5-min Rain = 0
KFLS 201015Z 16007KT 19/17 A2981 RMK A01 T01940174  RH  091%=      5-min Rain = 0
KFLS 201020Z 16007KT 19/17 A2981 RMK A01 T01940174  RH  090%=      5-min Rain = 0
KFLS 201025Z 15008KT 20/17 A2981 RMK A01 T01960174  RH  089%=      5-min Rain = 0
KFLS 201030Z 15007KT 20/17 A2981 RMK A01 T01970172  RH  088%=      5-min Rain = 0
KFLS 201035Z 16007KT 20/17 A2981 RMK A01 T01960171  RH  088%=      5-min Rain = 0
KFLS 201040Z 16006KT 20/17 A2981 RMK A01 T01960170  RH  087%=      5-min Rain = 0
KFLS 201045Z 16005KT 19/17 A2981 RMK A01 T01940169  RH  087%=      5-min Rain = 0
KFLS 201050Z 16006KT 19/17 A2981 RMK A01 T01930168  RH  088%=      5-min Rain = 0
KFLS 201055Z 15005KT 19/17 A2981 RMK A01 T01920167  RH  087%=      5-min Rain = 0
KFLS 201100Z 15004KT 19/17 A2981 RMK A01 T01910166  RH  088%=      5-min Rain = 0
KFLS 201105Z 14004KT 19/17 A2981 RMK A01 T01890165  RH  088%=      5-min Rain = 0
KFLS 201110Z 14004KT 19/16 A2981 RMK A01 T01880164  RH  088%=      5-min Rain = 0
KFLS 201115Z 14003KT 19/16 A2982 RMK A01 T01880163  RH  088%=      5-min Rain = 0
KFLS 201120Z 15004KT 19/16 A2982 RMK A01 T01880163  RH  088%=      5-min Rain = 0
KFLS 201125Z 15006KT 19/16 A2981 RMK A01 T01860160  RH  087%=      5-min Rain = 0
KFLS 201130Z 16006KT 19/16 A2981 RMK A01 T01850161  RH  088%=      5-min Rain = 0
KFLS 201135Z 17006KT 18/16 A2981 RMK A01 T01840161  RH  088%=      5-min Rain = 0
KFLS 201140Z 18005KT 18/16 A2981 RMK A01 T01830159  RH  088%=      5-min Rain = 0
KFLS 201145Z 17005KT 18/16 A2981 RMK A01 T01830159  RH  088%=      5-min Rain = 0
KFLS 201150Z 17005KT 19/16 A2981 RMK A01 T01860158  RH  086%=      5-min Rain = 0
KFLS 201155Z 18004KT 19/16 A2981 RMK A01 T01860158  RH  085%=      5-min Rain = 0
KFLS 201200Z 18003KT 19/16 A2981 RMK A01 T01880158  RH  085%=      5-min Rain = 0
KFLS 201205Z 19005KT 19/16 A2982 RMK A01 T01910157  RH  083%=      5-min Rain = 0
KFLS 201210Z 19006KT 19/16 A2982 RMK A01 T01900158  RH  083%=      5-min Rain = 0
KFLS 201215Z 19006KT 19/16 A2982 RMK A01 T01900159  RH  084%=      5-min Rain = 0
KFLS 201220Z 20006KT 19/16 A2982 RMK A01 T01910160  RH  085%=      5-min Rain = 0
KFLS 201225Z 20006KT 20/16 A2982 RMK A01 T01960162  RH  083%=      5-min Rain = 0
KFLS 201230Z 19008KT 20/16 A2981 RMK A01 T01990163  RH  082%=      5-min Rain = 0
KFLS 201235Z 19008KT 20/16 A2982 RMK A01 T02020164  RH  081%=      5-min Rain = 0
KFLS 201240Z 20006KT 20/17 A2982 RMK A01 T02030167  RH  082%=      5-min Rain = 0
KFLS 201245Z 20006KT 21/17 A2982 RMK A01 T02050168  RH  081%=      5-min Rain = 0
KFLS 201250Z 19008KT 21/17 A2982 RMK A01 T02080169  RH  080%=      5-min Rain = 0
KFLS 201255Z 20008KT 21/17 A2982 RMK A01 T02110169  RH  079%=      5-min Rain = 0
KFLS 201300Z 20007KT 21/17 A2982 RMK A01 T02120170  RH  079%=      5-min Rain = 0
KFLS 201305Z 20008KT 22/17 A2982 RMK A01 T02150171  RH  078%=      5-min Rain = 0
KFLS 201310Z 20008KT 22/17 A2982 RMK A01 T02170172  RH  078%=      5-min Rain = 0
KFLS 201315Z 21007KT 22/17 A2982 RMK A01 T02190173  RH  077%=      5-min Rain = 0
KFLS 201320Z 22006KT 22/17 A2983 RMK A01 T02220172  RH  075%=      5-min Rain = 0
KFLS 201325Z 27005KT 23/18 A2984 RMK A01 T02250175  RH  075%=      5-min Rain = 0
KFLS 201330Z 29004KT 22/18 A2984 RMK A01 T02240178  RH  077%=      5-min Rain = 0
KFLS 201335Z 22004KT 23/18 A2984 RMK A01 T02260177  RH  076%=      5-min Rain = 0
KFLS 201340Z 26005KT 23/18 A2984 RMK A01 T02290178  RH  075%=      5-min Rain = 0
KFLS 201350Z 25006KT 23/18 A2984 RMK A01 T02310177  RH  074%=      5-min Rain = 0
KFLS 201355Z 25006KT 24/18 A2984 RMK A01 T02350179  RH  073%=      5-min Rain = 0
KFLS 201400Z 24007KT 24/18 A2984 RMK A01 T02350178  RH  072%=      5-min Rain = 0
KFLS 201405Z 24008KT 24/18 A2984 RMK A01 T02380177  RH  070%=      5-min Rain = 0
KFLS 201410Z 23007KT 24/17 A2983 RMK A01 T02400174  RH  068%=      5-min Rain = 0
KFLS 201415Z 24007KT 24/18 A2983 RMK A01 T02440177  RH  068%=      5-min Rain = 0
KFLS 201420Z 24009KT 25/17 A2983 RMK A01 T02460173  RH  065%=      5-min Rain = 0
KFLS 201425Z 23008KT 25/17 A2983 RMK A01 T02480173  RH  065%=      5-min Rain = 0
KFLS 201430Z 23008KT 25/17 A2983 RMK A01 T02500173  RH  064%=      5-min Rain = 0
KFLS 201435Z 23008KT 25/17 A2983 RMK A01 T02520174  RH  063%=      5-min Rain = 0
KFLS 201440Z 23008KT 26/17 A2983 RMK A01 T02550174  RH  062%=      5-min Rain = 0
KFLS 201445Z 23008KT 26/17 A2983 RMK A01 T02570173  RH  061%=      5-min Rain = 0
KFLS 201450Z 24008KT 26/17 A2983 RMK A01 T02600173  RH  060%=      5-min Rain = 0
KFLS 201455Z 24008KT 26/17 A2983 RMK A01 T02610172  RH  059%=      5-min Rain = 0
KFLS 201500Z 24007KT 26/18 A2983 RMK A01 T02630175  RH  060%=      5-min Rain = 0
KFLS 201505Z 23008KT 27/18 A2983 RMK A01 T02680176  RH  058%=      5-min Rain = 0
KFLS 201510Z 23007KT 27/18 A2983 RMK A01 T02680176  RH  058%=      5-min Rain = 0
KFLS 201515Z 23007KT 27/17 A2983 RMK A01 T02720174  RH  057%=      5-min Rain = 0
KFLS 201520Z 23007KT 27/17 A2983 RMK A01 T02740172  RH  055%=      5-min Rain = 0
KFLS 201525Z 24008KT 28/17 A2983 RMK A01 T02770172  RH  054%=      5-min Rain = 0
KFLS 201530Z 23008KT 28/17 A2983 RMK A01 T02790173  RH  054%=      5-min Rain = 0
KFLS 201535Z 24007KT 28/17 A2983 RMK A01 T02830173  RH  052%=      5-min Rain = 0
KFLS 201540Z 24007KT 29/17 A2983 RMK A01 T02860170  RH  051%=      5-min Rain = 0
KFLS 201545Z 24006KT 29/18 A2983 RMK A01 T02900176  RH  052%=      5-min Rain = 0
KFLS 201550Z 24007KT 30/18 A2983 RMK A01 T02950175  RH  050%=      5-min Rain = 0
KFLS 201555Z 24008KT 30/16 A2983 RMK A01 T02970163  RH  046%=      5-min Rain = 0
KFLS 201600Z 25007KT 30/15 A2983 RMK A01 T03010152  RH  041%=      5-min Rain = 0
KFLS 201605Z 23007KT 31/16 A2983 RMK A01 T03050162  RH  043%=      5-min Rain = 0
KFLS 201610Z 24008KT 31/16 A2983 RMK A01 T03060160  RH  042%=      5-min Rain = 0
KFLS 201615Z 23007KT 31/16 A2983 RMK A01 T03070164  RH  043%=      5-min Rain = 0
KFLS 201620Z 23007KT 31/16 A2983 RMK A01 T03110163  RH  042%=      5-min Rain = 0
KFLS 201625Z 23008KT 31/17 A2983 RMK A01 T03140167  RH  042%=      5-min Rain = 0
KFLS 201630Z 24010KT 32/17 A2984 RMK A01 T03160166  RH  042%=      5-min Rain = 0
KFLS 201635Z 22008KT 32/16 A2983 RMK A01 T03170157  RH  039%=      5-min Rain = 0
KFLS 201640Z 23010KT 32/15 A2984 RMK A01 T03210154  RH  037%=      5-min Rain = 0
KFLS 201645Z 24009KT 32/16 A2983 RMK A01 T03220157  RH  038%=      5-min Rain = 0
KFLS 201650Z 24010KT 32/16 A2984 RMK A01 T03230155  RH  037%=      5-min Rain = 0
KFLS 201655Z 24009KT 32/16 A2984 RMK A01 T03230156  RH  037%=      5-min Rain = 0
KFLS 201700Z 24008KT 33/16 A2984 RMK A01 T03270158  RH  037%=      5-min Rain = 0
KFLS 201705Z 23008KT 33/16 A2984 RMK A01 T03290155  RH  036%=      5-min Rain = 0
KFLS 201710Z 23008KT 33/14 A2984 RMK A01 T03300144  RH  033%=      5-min Rain = 0
KFLS 201715Z 25006KT 33/15 A2984 RMK A01 T03320146  RH  033%=      5-min Rain = 0
KFLS 201720Z 24007KT 33/14 A2984 RMK A01 T03340137  RH  031%=      5-min Rain = 0
KFLS 201725Z 24007KT 34/14 A2984 RMK A01 T03370138  RH  031%=      5-min Rain = 0
KFLS 201730Z 24005KT 34/14 A2984 RMK A01 T03370136  RH  030%=      5-min Rain = 0
KFLS 201735Z 24005KT 34/14 A2983 RMK A01 T03410139  RH  030%=      5-min Rain = 0
KFLS 201740Z 23005KT 34/12 A2983 RMK A01 T03440124  RH  027%=      5-min Rain = 0
KFLS 201745Z 24006KT 35/12 A2983 RMK A01 T03500116  RH  025%=      5-min Rain = 0
KFLS 201750Z 21007KT 35/09 A2983 RMK A01 T03510092  RH  021%=      5-min Rain = 0
KFLS 201755Z 22007KT 35/08 A2983 RMK A01 T03530077  RH  019%=      5-min Rain = 0
KFLS 201800Z 22007KT 35/07 A2983 RMK A01 T03540066  RH  017%=      5-min Rain = 0
KFLS 201805Z 24006KT 36/06 A2983 RMK A01 T03550064  RH  017%=      5-min Rain = 0
KFLS 201810Z 24006KT 36/09 A2983 RMK A01 T03560088  RH  020%=      5-min Rain = 0
KFLS 201815Z 23004KT 36/08 A2983 RMK A01 T03570075  RH  018%=      5-min Rain = 0
KFLS 201820Z 24004G9KT 36/08 A2983 RMK A01 T03550076  RH  018%=      5-min Rain = 0
KFLS 201825Z 24006KT 36/08 A2983 RMK A01 T03570078  RH  018%=      5-min Rain = 0
KFLS 201830Z 25005KT 36/08 A2983 RMK A01 T03560077  RH  018%=      5-min Rain = 0
KFLS 201835Z 25005KT 36/08 A2983 RMK A01 T03600082  RH  019%=      5-min Rain = 0
KFLS 201840Z 24008KT 36/09 A2982 RMK A01 T03600086  RH  019%=      5-min Rain = 0
KFLS 201845Z 24006G11KT 36/09 A2982 RMK A01 T03610086  RH  019%=      5-min Rain = 0
KFLS 201850Z 21006KT 36/09 A2982 RMK A01 T03600089  RH  019%=      5-min Rain = 0
KFLS 201855Z 23008KT 36/09 A2982 RMK A01 T03610087  RH  019%=      5-min Rain = 0
KFLS 201900Z 25006KT 36/09 A2982 RMK A01 T03610085  RH  019%=      5-min Rain = 0
KFLS 201905Z 22007KT 36/09 A2982 RMK A01 T03630087  RH  019%=      5-min Rain = 0
KFLS 201910Z 22008KT 37/09 A2982 RMK A01 T03660088  RH  019%=      5-min Rain = 0
KFLS 201915Z 21006KT 36/09 A2982 RMK A01 T03630085  RH  019%=      5-min Rain = 0
KFLS 201920Z 22004KT 36/08 A2981 RMK A01 T03640075  RH  017%=      5-min Rain = 0
KFLS 201925Z 25007KT 37/09 A2981 RMK A01 T03660089  RH  019%=      5-min Rain = 0
KFLS 201930Z 27007KT 37/09 A2981 RMK A01 T03650087  RH  019%=      5-min Rain = 0
KFLS 201935Z 27004KT 37/09 A2981 RMK A01 T03680085  RH  018%=      5-min Rain = 0
KFLS 201940Z 22005KT 37/08 A2981 RMK A01 T03680079  RH  018%=      5-min Rain = 0
KFLS 201945Z 22006G12KT 37/07 A2981 RMK A01 T03680073  RH  017%=      5-min Rain = 0
KFLS 201950Z 19006KT 37/09 A298 RMK A01 T03700085  RH  018%=      5-min Rain = 0
KFLS 201955Z 21008G14KT 37/07 A298 RMK A01 T03710073  RH  017%=      5-min Rain = 0
KFLS 202000Z 20009KT 37/07 A298 RMK A01 T03730068  RH  016%=      5-min Rain = 0
KFLS 202005Z 24009KT 37/06 A298 RMK A01 T03730063  RH  015%=      5-min Rain = 0
KFLS 202010Z 23006KT 37/06 A298 RMK A01 T03710062  RH  015%=      5-min Rain = 0
KFLS 202015Z 23007KT 36/07 A298 RMK A01 T03630067  RH  017%=      5-min Rain = 0
KFLS 202020Z 21008G13KT 37/06 A298 RMK A01 T03720057  RH  015%=      5-min Rain = 0
KFLS 202025Z 22010G15KT 38/05 A2979 RMK A01 T03750053  RH  014%=      5-min Rain = 0
KFLS 202030Z 20008KT 38/07 A2979 RMK A01 T03750065  RH  015%=      5-min Rain = 0
KFLS 202035Z 21007KT 37/07 A2979 RMK A01 T03720065  RH  015%=      5-min Rain = 0
KFLS 202040Z 26006G12KT 37/08 A2979 RMK A01 T03700077  RH  017%=      5-min Rain = 0
KFLS 202045Z 25012KT 38/06 A2979 RMK A01 T03780062  RH  015%=      5-min Rain = 0
KFLS 202050Z 26011G16KT 36/05 A2979 RMK A01 T03570053  RH  016%=      5-min Rain = 0
KFLS 202055Z 26008KT 35/07 A2979 RMK A01 T03490068  RH  018%=      5-min Rain = 0
KFLS 202100Z 25006KT 37/06 A2978 RMK A01 T03730060  RH  015%=      5-min Rain = 0
KFLS 202105Z 23006KT 37/03 A2978 RMK A01 T03730034  RH  012%=      5-min Rain = 0
KFLS 202110Z 23006G11KT 36/06 A2978 RMK A01 T03570056  RH  016%=      5-min Rain = 0
KFLS 202115Z 20007G14KT 37/06 A2978 RMK A01 T03690055  RH  015%=      5-min Rain = 0
KFLS 202120Z 23010KT 38/05 A2977 RMK A01 T03760048  RH  014%=      5-min Rain = 0
KFLS 202125Z 23009G14KT 38/05 A2977 RMK A01 T03780051  RH  014%=      5-min Rain = 0
KFLS 202130Z 24007KT 37/05 A2977 RMK A01 T03660051  RH  015%=      5-min Rain = 0
KFLS 202135Z 25006KT 37/05 A2977 RMK A01 T03700052  RH  014%=      5-min Rain = 0
KFLS 202140Z 26005KT 36/03 A2977 RMK A01 T03630032  RH  013%=      5-min Rain = 0
KFLS 202145Z 23007KT 37/06 A2977 RMK A01 T03740056  RH  014%=      5-min Rain = 0
KFLS 202150Z 22007KT 38/04 A2977 RMK A01 T03760036  RH  012%=      5-min Rain = 0
KFLS 202155Z 24011G20KT 37/04 A2976 RMK A01 T03710040  RH  013%=      5-min Rain = 0
KFLS 202200Z 21012G19KT 37/04 A2976 RMK A01 T03730038  RH  013%=      5-min Rain = 0
KFLS 202205Z 21010G16KT 37/04 A2976 RMK A01 T03710035  RH  013%=      5-min Rain = 0
KFLS 202210Z 23009KT 36/04 A2976 RMK A01 T03610039  RH  014%=      5-min Rain = 0
KFLS 202215Z 24010KT 36/05 A2976 RMK A01 T03590048  RH  015%=      5-min Rain = 0
KFLS 202220Z 23009KT 37/05 A2976 RMK A01 T03730054  RH  014%=      5-min Rain = 0
KFLS 202225Z 20010KT 37/04 A2976 RMK A01 T03700041  RH  013%=      5-min Rain = 0
KFLS 202230Z 19009G16KT 37/04 A2976 RMK A01 T03690043  RH  014%=      5-min Rain = 0
KFLS 202235Z 22007KT 37/04 A2976 RMK A01 T03740041  RH  013%=      5-min Rain = 0
KFLS 202240Z 23008KT 37/04 A2976 RMK A01 T03730044  RH  013%=      5-min Rain = 0
KFLS 202245Z 22006KT 37/04 A2976 RMK A01 T03700043  RH  014%=      5-min Rain = 0
KFLS 202250Z 24008KT 38/06 A2976 RMK A01 T03770056  RH  014%=      5-min Rain = 0
KFLS 202255Z 24009KT 38/05 A2976 RMK A01 T03770054  RH  014%=      5-min Rain = 0
KFLS 202300Z 22008KT 38/05 A2976 RMK A01 T03760048  RH  014%=      5-min Rain = 0
KFLS 202305Z 21008KT 37/05 A2975 RMK A01 T03740049  RH  014%=      5-min Rain = 0
KFLS 202310Z 21008KT 37/04 A2975 RMK A01 T03730040  RH  013%=      5-min Rain = 0
KFLS 202315Z 21006KT 37/03 A2975 RMK A01 T03690028  RH  012%=      5-min Rain = 0
KFLS 202320Z 21006KT 37/05 A2975 RMK A01 T03670053  RH  015%=      5-min Rain = 0
KFLS 202325Z 23006KT 37/06 A2975 RMK A01 T03680060  RH  015%=      5-min Rain = 0
KFLS 202330Z 20010G16KT 37/06 A2975 RMK A01 T03660055  RH  015%=      5-min Rain = 0
KFLS 202335Z 21008KT 36/05 A2975 RMK A01 T03620049  RH  015%=      5-min Rain = 0
KFLS 202340Z 22005KT 36/05 A2975 RMK A01 T03610054  RH  015%=      5-min Rain = 0
KFLS 202345Z 21008G13KT 36/04 A2974 RMK A01 T03560036  RH  014%=      5-min Rain = 0
KFLS 202350Z 24011KT 35/04 A2974 RMK A01 T03490042  RH  015%=      5-min Rain = 0
KFLS 202355Z 24009KT 34/06 A2974 RMK A01 T03390060  RH  018%=      5-min Rain = 0
KFLS 210000Z 24008KT 33/08 A2974 RMK A01 T03320075  RH  021%=      5-min Rain = 0
KFLS 210005Z 24008KT 33/08 A2974 RMK A01 T03340078  RH  021%=      5-min Rain = 0
KFLS 210010Z 23007KT 34/08 A2974 RMK A01 T03380076  RH  020%=      5-min Rain = 0
KFLS 210015Z 24005KT 34/09 A2974 RMK A01 T03420087  RH  021%=      5-min Rain = 0
KFLS 210020Z 25005KT 35/10 A2974 RMK A01 T03460098  RH  022%=      5-min Rain = 0
KFLS 210025Z 24004KT 35/09 A2974 RMK A01 T03500093  RH  021%=      5-min Rain = 0
KFLS 210030Z 23005KT 35/08 A2974 RMK A01 T03490082  RH  020%=      5-min Rain = 0
KFLS 210035Z 21005KT 35/09 A2974 RMK A01 T03460091  RH  021%=      5-min Rain = 0
KFLS 210040Z 21006KT 35/08 A2974 RMK A01 T03450081  RH  020%=      5-min Rain = 0
KFLS 210045Z 21006KT 34/08 A2974 RMK A01 T03420083  RH  021%=      5-min Rain = 0
KFLS 210050Z 21006KT 33/08 A2974 RMK A01 T03340079  RH  021%=      5-min Rain = 0
KFLS 210055Z 21004KT 33/08 A2974 RMK A01 T03310079  RH  021%=      5-min Rain = 0
KFLS 210100Z 21005KT 33/11 A2974 RMK A01 T03280113  RH  027%=      5-min Rain = 0
KFLS 210105Z 19007KT 32/13 A2974 RMK A01 T03170130  RH  033%=      5-min Rain = 0
KFLS 210110Z 20007KT 32/09 A2974 RMK A01 T03170094  RH  026%=      5-min Rain = 0
KFLS 210115Z 19007KT 32/08 A2974 RMK A01 T03160080  RH  023%=      5-min Rain = 0
KFLS 210120Z 18009KT 32/06 A2974 RMK A01 T03160056  RH  020%=      5-min Rain = 0
KFLS 210125Z 18009KT 32/05 A2974 RMK A01 T03170053  RH  019%=      5-min Rain = 0
KFLS 210130Z 18009KT 31/05 A2974 RMK A01 T03140052  RH  020%=      5-min Rain = 0
KFLS 210135Z 18009KT 31/06 A2974 RMK A01 T03070059  RH  021%=      5-min Rain = 0
KFLS 210140Z 18008KT 30/07 A2974 RMK A01 T03000066  RH  023%=      5-min Rain = 0
KFLS 210145Z 19007KT 29/07 A2974 RMK A01 T02900072  RH  026%=      5-min Rain = 0
KFLS 210150Z 19007KT 28/08 A2974 RMK A01 T02830076  RH  028%=      5-min Rain = 0
KFLS 210155Z 18006KT 28/08 A2974 RMK A01 T02780081  RH  029%=      5-min Rain = 0
KFLS 210200Z 18006KT 28/08 A2974 RMK A01 T02750084  RH  031%=      5-min Rain = 0
KFLS 210205Z 16005KT 27/08 A2974 RMK A01 T02720082  RH  031%=      5-min Rain = 0
KFLS 210210Z 15006KT 27/09 A2974 RMK A01 T02710089  RH  032%=      5-min Rain = 0
KFLS 210215Z 15007KT 27/09 A2975 RMK A01 T02650091  RH  034%=      5-min Rain = 0
KFLS 210220Z 15008KT 26/09 A2975 RMK A01 T02640086  RH  033%=      5-min Rain = 0
KFLS 210225Z 15009KT 27/09 A2975 RMK A01 T02660085  RH  032%=      5-min Rain = 0
KFLS 210230Z 15009KT 26/09 A2975 RMK A01 T02630091  RH  034%=      5-min Rain = 0
KFLS 210235Z 16009KT 26/09 A2975 RMK A01 T02640094  RH  035%=      5-min Rain = 0
KFLS 210240Z 16009KT 26/10 A2975 RMK A01 T02630095  RH  035%=      5-min Rain = 0
KFLS 210245Z 16009KT 26/09 A2975 RMK A01 T02630092  RH  034%=      5-min Rain = 0
KFLS 210250Z 16009KT 26/09 A2975 RMK A01 T02640091  RH  034%=      5-min Rain = 0
KFLS 210255Z 16009KT 26/09 A2975 RMK A01 T02630088  RH  034%=      5-min Rain = 0
KFLS 210300Z 16009KT 27/08 A2975 RMK A01 T02660083  RH  032%=      5-min Rain = 0
KFLS 210305Z 16009KT 26/08 A2976 RMK A01 T02640082  RH  032%=      5-min Rain = 0
KFLS 210310Z 16009KT 27/08 A2976 RMK A01 T02650083  RH  032%=      5-min Rain = 0
KFLS 210315Z 16009KT 26/09 A2976 RMK A01 T02610085  RH  033%=      5-min Rain = 0
KFLS 210320Z 16009KT 26/09 A2976 RMK A01 T02580088  RH  035%=      5-min Rain = 0
KFLS 210325Z 16010KT 26/09 A2976 RMK A01 T02570087  RH  034%=      5-min Rain = 0
KFLS 210330Z 16010KT 26/09 A2976 RMK A01 T02580087  RH  034%=      5-min Rain = 0
KFLS 210335Z 16009KT 26/09 A2976 RMK A01 T02560086  RH  035%=      5-min Rain = 0
KFLS 210340Z 16010KT 26/08 A2977 RMK A01 T02570084  RH  034%=      5-min Rain = 0
KFLS 210345Z 16010KT 26/08 A2977 RMK A01 T02570082  RH  033%=      5-min Rain = 0
KFLS 210350Z 16010KT 26/08 A2977 RMK A01 T02570082  RH  034%=      5-min Rain = 0
KFLS 210355Z 16010KT 25/08 A2977 RMK A01 T02540084  RH  035%=      5-min Rain = 0
KFLS 210400Z 16010KT 25/09 A2977 RMK A01 T02520087  RH  036%=      5-min Rain = 0
KFLS 210405Z 16009KT 25/09 A2977 RMK A01 T02480088  RH  037%=      5-min Rain = 0
KFLS 210410Z 16009KT 24/09 A2977 RMK A01 T02420094  RH  040%=      5-min Rain = 0
KFLS 210415Z 16009KT 24/09 A2977 RMK A01 T02400093  RH  040%=      5-min Rain = 0
KFLS 210420Z 15010KT 24/09 A2977 RMK A01 T02420091  RH  039%=      5-min Rain = 0
KFLS 210425Z 16010KT 24/09 A2977 RMK A01 T02420087  RH  038%=      5-min Rain = 0
KFLS 210430Z 17009KT 25/08 A2977 RMK A01 T02480081  RH  035%=      5-min Rain = 0
KFLS 210435Z 17011G17KT 26/06 A2977 RMK A01 T02600061  RH  029%=      5-min Rain = 0
KFLS 210440Z 17011KT 27/06 A2977 RMK A01 T02690055  RH  026%=      5-min Rain = 0
KFLS 210445Z 18011G17KT 27/04 A2977 RMK A01 T02730044  RH  023%=      5-min Rain = 0
KFLS 210450Z 18011G16KT 28/04 A2977 RMK A01 T02780039  RH  022%=      5-min Rain = 0
KFLS 210455Z 19010KT 27/05 A2977 RMK A01 T02690045  RH  024%=      5-min Rain = 0

Page generated in 0.0093 seconds.